Terminal Aerodrome Forecast
Issued by NWS Tuscon, AZ

Home | Current Version | Previous Version | Text Only | Print | Product List | Glossary On
Versions: 1 2 3 4 5 6 7 8 9 10 11 12
140
FTUS45 KTWC 210520
TAFTUS
TAF
KTUS 210520Z 2106/2206 34007KT P6SM SCT090 BKN110
     FM210700 14007KT P6SM SCT090 BKN110
     FM211800 31008KT P6SM SCT090 SCT110
     FM220400 16005KT P6SM SCT090 SCT110=

USA.gov is the U.S. government's official web portal to all federal, state and local government web resources and services.